createdAt,value
2023-03-19T00:05:50.963Z,989
2023-03-19T00:11:50.933Z,989
2023-03-19T00:17:50.928Z,990
2023-03-19T00:23:50.966Z,990
2023-03-19T00:29:50.945Z,990
2023-03-19T00:35:50.964Z,990
2023-03-19T00:41:50.955Z,989
2023-03-19T00:47:50.950Z,990
2023-03-19T00:53:50.928Z,989
2023-03-19T00:59:50.973Z,990
2023-03-19T01:05:50.936Z,989
2023-03-19T01:11:50.952Z,989
2023-03-19T01:17:50.959Z,989
2023-03-19T01:23:50.939Z,989
2023-03-19T01:29:50.950Z,989
2023-03-19T01:35:50.986Z,990
2023-03-19T01:41:50.969Z,990
2023-03-19T01:47:50.965Z,990
2023-03-19T01:53:50.997Z,990
2023-03-19T01:59:50.935Z,990
2023-03-19T02:05:50.947Z,989
2023-03-19T02:11:50.955Z,989
2023-03-19T02:17:50.925Z,989
2023-03-19T02:23:50.944Z,990
2023-03-19T02:29:50.935Z,989
2023-03-19T02:35:50.956Z,990
2023-03-19T02:41:51.132Z,989
2023-03-19T02:47:50.949Z,989
2023-03-19T02:53:50.964Z,990
2023-03-19T02:59:50.927Z,990
2023-03-19T03:05:50.950Z,989
2023-03-19T03:11:50.929Z,989
2023-03-19T03:17:50.956Z,989
2023-03-19T03:23:50.979Z,989
2023-03-19T03:29:50.941Z,989
2023-03-19T03:35:51.018Z,990
2023-03-19T03:41:51.143Z,990
2023-03-19T03:47:50.938Z,990
2023-03-19T03:53:50.970Z,990
2023-03-19T03:59:50.964Z,990
2023-03-19T04:05:50.926Z,990
2023-03-19T04:11:51.607Z,990
2023-03-19T04:17:50.973Z,990
2023-03-19T04:23:50.948Z,990
2023-03-19T04:29:50.960Z,990
2023-03-19T04:35:51.002Z,990
2023-03-19T04:41:50.960Z,990
2023-03-19T04:47:50.963Z,990
2023-03-19T04:53:50.975Z,990
2023-03-19T04:59:50.944Z,990
2023-03-19T05:05:50.949Z,990
2023-03-19T05:11:50.955Z,990
2023-03-19T05:17:50.954Z,990
2023-03-19T05:23:50.950Z,990
2023-03-19T05:29:50.976Z,990
2023-03-19T05:35:51.013Z,990
2023-03-19T05:41:50.941Z,990
2023-03-19T05:47:50.970Z,990
2023-03-19T05:53:50.967Z,990
2023-03-19T05:59:50.937Z,990
2023-03-19T06:05:50.957Z,990
2023-03-19T06:11:50.920Z,990
2023-03-19T06:17:50.934Z,990
2023-03-19T06:23:50.974Z,990
2023-03-19T06:29:50.954Z,990
2023-03-19T06:35:51.086Z,990
2023-03-19T06:41:50.977Z,991
2023-03-19T06:47:53.383Z,991
2023-03-19T06:53:50.947Z,991
2023-03-19T06:59:50.974Z,991
2023-03-19T07:05:50.962Z,991
2023-03-19T07:11:50.950Z,991
2023-03-19T07:17:50.991Z,991
2023-03-19T07:23:50.950Z,991
2023-03-19T07:29:50.949Z,991
2023-03-19T07:35:51.030Z,991
2023-03-19T07:41:50.972Z,991
2023-03-19T07:47:50.943Z,991
2023-03-19T07:53:50.981Z,991
2023-03-19T07:59:50.965Z,991
2023-03-19T08:05:50.971Z,991
2023-03-19T08:11:50.978Z,991
2023-03-19T08:17:50.953Z,991
2023-03-19T08:23:50.951Z,991
2023-03-19T08:29:51.077Z,991
2023-03-19T08:35:50.980Z,991
2023-03-19T08:41:51.352Z,991
2023-03-19T08:47:51.002Z,991
2023-03-19T08:53:50.952Z,991
2023-03-19T08:59:50.929Z,991
2023-03-19T09:05:51.068Z,991
2023-03-19T09:11:50.950Z,992
2023-03-19T09:17:50.932Z,992
2023-03-19T09:23:50.977Z,992
2023-03-19T09:29:50.944Z,992
2023-03-19T09:35:51.124Z,992
2023-03-19T09:41:50.966Z,992
2023-03-19T09:47:50.932Z,992
2023-03-19T09:53:50.943Z,992
2023-03-19T09:59:50.981Z,992
2023-03-19T10:05:50.939Z,992
2023-03-19T10:11:50.950Z,992
2023-03-19T10:17:50.970Z,992
2023-03-19T10:23:50.943Z,992
2023-03-19T10:29:50.949Z,992
2023-03-19T10:35:51.119Z,992
2023-03-19T10:41:50.966Z,992
2023-03-19T10:47:50.948Z,992
2023-03-19T10:53:50.978Z,992
2023-03-19T10:59:50.970Z,992
2023-03-19T11:05:50.976Z,992
2023-03-19T11:11:51.216Z,992
2023-03-19T11:17:50.958Z,992
2023-03-19T11:23:50.965Z,992
2023-03-19T11:29:50.967Z,992
2023-03-19T11:35:50.993Z,992
2023-03-19T11:41:51.026Z,992
2023-03-19T11:47:50.982Z,992
2023-03-19T11:53:50.957Z,992
2023-03-19T11:59:50.982Z,992
2023-03-19T12:05:50.996Z,992
2023-03-19T12:11:50.989Z,992
2023-03-19T12:17:50.952Z,992
2023-03-19T12:23:51.022Z,992
2023-03-19T12:29:50.969Z,992
2023-03-19T12:35:50.985Z,992
2023-03-19T12:41:50.995Z,992
2023-03-19T12:47:50.959Z,992
2023-03-19T12:53:50.970Z,992
2023-03-19T12:59:51.004Z,992
2023-03-19T13:05:50.977Z,992
2023-03-19T13:11:50.988Z,992
2023-03-19T13:17:51.012Z,992
2023-03-19T13:23:51.020Z,992
2023-03-19T13:29:51.009Z,992
2023-03-19T13:35:51.072Z,992
2023-03-19T13:41:50.987Z,992
2023-03-19T13:47:50.983Z,992
2023-03-19T13:53:51.007Z,992
2023-03-19T14:00:01.264Z,992
2023-03-19T14:05:51.088Z,992
2023-03-19T14:11:51.011Z,992
2023-03-19T14:17:51.147Z,992
2023-03-19T14:23:52.632Z,992
2023-03-19T14:29:50.988Z,992
2023-03-19T14:35:51.014Z,992
2023-03-19T14:41:51.006Z,992
2023-03-19T14:47:51.038Z,992
2023-03-19T14:53:50.974Z,992
2023-03-19T14:59:51.021Z,991
2023-03-19T15:05:51.009Z,991
2023-03-19T15:11:50.980Z,992
2023-03-19T15:18:02.982Z,991
2023-03-19T15:23:51.022Z,992
2023-03-19T15:29:51.845Z,992
2023-03-19T15:35:51.026Z,992
2023-03-19T15:41:51.025Z,992
2023-03-19T15:47:51.004Z,992
2023-03-19T15:53:50.980Z,992
2023-03-19T15:59:51.045Z,992
2023-03-19T16:05:50.988Z,992
2023-03-19T16:11:51.826Z,992
2023-03-19T16:17:51.031Z,992
2023-03-19T16:23:50.994Z,992
2023-03-19T16:29:50.995Z,992
2023-03-19T16:35:51.019Z,992
2023-03-19T16:41:50.993Z,992
2023-03-19T16:47:50.990Z,992
2023-03-19T16:53:51.008Z,992
2023-03-19T16:59:51.269Z,992
2023-03-19T17:05:50.990Z,993
2023-03-19T17:11:51.170Z,993
2023-03-19T17:17:51.019Z,993
2023-03-19T17:23:50.976Z,993
2023-03-19T17:29:51.033Z,993
2023-03-19T17:35:51.030Z,993
2023-03-19T17:41:50.992Z,993
2023-03-19T17:47:51.046Z,993
2023-03-19T17:53:51.007Z,993
2023-03-19T17:59:50.988Z,993
2023-03-19T18:05:51.036Z,993
2023-03-19T18:11:50.994Z,993
2023-03-19T18:17:51.007Z,993
2023-03-19T18:23:51.026Z,994
2023-03-19T18:29:51.001Z,994
2023-03-19T18:35:51.044Z,994
2023-03-19T18:41:51.065Z,994
2023-03-19T18:47:51.039Z,994
2023-03-19T18:53:51.008Z,994
2023-03-19T18:59:51.032Z,994
2023-03-19T19:05:51.001Z,994
2023-03-19T19:11:51.018Z,994
2023-03-19T19:17:51.013Z,994
2023-03-19T19:23:51.087Z,994
2023-03-19T19:29:50.999Z,994
2023-03-19T19:35:51.055Z,994
2023-03-19T19:41:50.996Z,994
2023-03-19T19:47:51.012Z,994
2023-03-19T19:53:51.050Z,994
2023-03-19T19:59:51.083Z,994
2023-03-19T20:05:51.013Z,995
2023-03-19T20:11:51.031Z,995
2023-03-19T20:17:51.018Z,995
2023-03-19T20:23:50.991Z,995
2023-03-19T20:29:51.012Z,995
2023-03-19T20:35:51.038Z,995
2023-03-19T20:41:51.001Z,995
2023-03-19T20:47:51.032Z,995
2023-03-19T20:53:51.012Z,995
2023-03-19T20:59:50.983Z,995
2023-03-19T21:05:51.029Z,995
2023-03-19T21:11:51.001Z,995
2023-03-19T21:17:51.008Z,995
2023-03-19T21:23:51.029Z,995
2023-03-19T21:29:51.005Z,995
2023-03-19T21:35:51.058Z,995
2023-03-19T21:41:51.299Z,995
2023-03-19T21:47:51.029Z,995
2023-03-19T21:53:51.040Z,995
2023-03-19T21:59:51.032Z,995
2023-03-19T22:05:51.021Z,995
2023-03-19T22:11:51.036Z,995
2023-03-19T22:17:51.216Z,995
2023-03-19T22:23:51.113Z,995
2023-03-19T22:29:51.032Z,995
2023-03-19T22:35:51.061Z,996
2023-03-19T22:41:50.995Z,996
2023-03-19T22:47:51.019Z,996
2023-03-19T22:54:01.319Z,996
2023-03-19T22:59:51.013Z,996
2023-03-19T23:05:51.018Z,996
2023-03-19T23:11:51.037Z,996
2023-03-19T23:18:01.283Z,996
2023-03-19T23:23:51.021Z,996
2023-03-19T23:29:51.150Z,996
2023-03-19T23:35:51.012Z,996
2023-03-19T23:42:01.300Z,996
2023-03-19T23:47:51.026Z,996
2023-03-19T23:53:51.016Z,996
2023-03-19T23:59:51.017Z,996
